Time;durP1;ratioP1;P1;durP2;ratioP2;P2;SDS_P1;SDS_P2;PMS_P1;PMS_P2;Temp;Humidity;BMP_temperature;BMP_pressure;BME280_temperature;BME280_humidity;BME280_pressure;Samples;Min_cycle;Max_cycle;Signal;HPM_P1;HPM_P2
2024/03/21 00:01:30;;;;;;;;;;;12.90;61.00;;;;;;5053164;28;19909;-68
2024/03/21 00:03:55;;;;;;;;;;;12.90;63.30;;;;;;5053280;28;19931;-68
2024/03/21 00:06:22;;;;;;;;;;;13.00;63.70;;;;;;5052912;28;19909;-68
2024/03/21 00:08:48;;;;;;;;;;;13.10;69.70;;;;;;5053226;28;20327;-68
2024/03/21 00:11:13;;;;;;;;;;;13.00;68.40;;;;;;5053145;28;19911;-68
2024/03/21 00:13:39;;;;;;;;;;;12.90;69.20;;;;;;5053052;28;19909;-68
2024/03/21 00:16:05;;;;;;;;;;;13.00;68.60;;;;;;5052754;28;19912;-68
2024/03/21 00:18:31;;;;;;;;;;;12.80;67.20;;;;;;5052986;28;19905;-68
2024/03/21 00:20:57;;;;;;;;;;;13.00;74.90;;;;;;5052904;28;19912;-68
2024/03/21 00:23:22;;;;;;;;;;;12.80;75.40;;;;;;5052902;28;19904;-68
2024/03/21 00:25:48;;;;;;;;;;;13.00;76.80;;;;;;5052658;28;19904;-68
2024/03/21 00:28:16;;;;;;;;;;;12.90;76.20;;;;;;5052895;28;20322;-67
2024/03/21 00:30:41;;;;;;;;;;;13.10;79.70;;;;;;5052635;28;20058;-67
2024/03/21 00:33:07;;;;;;;;;;;12.70;80.10;;;;;;5052598;28;20011;-67
2024/03/21 00:35:32;;;;;;;;;;;12.90;82.30;;;;;;5052452;28;19939;-67
2024/03/21 00:37:58;;;;;;;;;;;13.00;83.50;;;;;;5052727;28;20383;-67
2024/03/21 00:40:24;;;;;;;;;;;13.00;83.90;;;;;;5052619;28;19904;-68
2024/03/21 00:42:50;;;;;;;;;;;13.10;83.40;;;;;;5052572;28;20354;-68
2024/03/21 00:45:15;;;;;;;;;;;13.00;74.20;;;;;;5052362;28;19936;-67
2024/03/21 00:47:41;;;;;;;;;;;12.90;69.50;;;;;;5052580;28;19904;-68
2024/03/21 00:50:06;;;;;;;;;;;12.80;71.80;;;;;;5052080;28;19991;-67
2024/03/21 00:52:32;;;;;;;;;;;12.80;75.40;;;;;;5052564;28;19947;-67
2024/03/21 00:54:57;;;;;;;;;;;12.90;82.70;;;;;;5052360;28;20365;-68
2024/03/21 00:57:23;;;;;;;;;;;12.90;87.60;;;;;;5052166;28;19905;-68
2024/03/21 00:59:49;;;;;;;;;;;12.90;89.60;;;;;;5052253;28;19912;-68
2024/03/21 01:02:15;;;;;;;;;;;13.10;90.60;;;;;;5052287;28;20372;-68
2024/03/21 01:04:43;;;;;;;;;;;13.00;90.40;;;;;;5052258;28;19924;-68
2024/03/21 01:07:09;;;;;;;;;;;13.10;90.40;;;;;;5052033;28;20272;-68
2024/03/21 01:09:35;;;;;;;;;;;12.80;91.80;;;;;;5052222;28;19980;-68
2024/03/21 01:12:00;;;;;;;;;;;12.90;93.60;;;;;;5052261;28;20257;-68
2024/03/21 01:14:26;;;;;;;;;;;12.70;92.50;;;;;;5052112;28;19916;-68
2024/03/21 01:16:51;;;;;;;;;;;13.00;91.20;;;;;;5051955;28;19936;-68
2024/03/21 01:19:17;;;;;;;;;;;13.00;88.80;;;;;;5052078;28;19950;-68
2024/03/21 01:21:42;;;;;;;;;;;12.70;84.20;;;;;;5052169;28;19991;-67
2024/03/21 01:24:08;;;;;;;;;;;12.90;84.50;;;;;;5052114;28;19905;-68
2024/03/21 01:26:33;;;;;;;;;;;12.80;81.40;;;;;;5051843;28;19905;-68
2024/03/21 01:28:58;;;;;;;;;;;12.90;80.40;;;;;;5052056;28;19905;-68
2024/03/21 01:31:24;;;;;;;;;;;12.90;81.40;;;;;;5051962;28;19955;-68
2024/03/21 01:33:49;;;;;;;;;;;12.90;79.90;;;;;;5051832;28;19912;-68
2024/03/21 01:36:15;;;;;;;;;;;13.10;78.70;;;;;;5051811;28;19912;-68
2024/03/21 01:38:41;;;;;;;;;;;12.80;76.00;;;;;;5052013;28;20419;-68
2024/03/21 01:41:06;;;;;;;;;;;13.00;76.50;;;;;;5051927;28;20375;-68
2024/03/21 01:43:32;;;;;;;;;;;13.10;74.30;;;;;;5051895;28;19952;-68
2024/03/21 01:46:07;;;;;;;;;;;13.00;72.20;;;;;;5033112;28;19916;-68
2024/03/21 01:48:33;;;;;;;;;;;12.90;65.50;;;;;;5031907;28;19912;-68
2024/03/21 01:50:58;;;;;;;;;;;13.10;71.60;;;;;;5031868;28;19905;-68
2024/03/21 01:53:24;;;;;;;;;;;12.90;72.10;;;;;;5031884;28;19917;-68
2024/03/21 01:55:50;;;;;;;;;;;13.00;74.20;;;;;;5031643;28;20261;-68
2024/03/21 01:58:16;;;;;;;;;;;12.80;72.20;;;;;;5031946;28;19905;-68
2024/03/21 02:00:41;;;;;;;;;;;13.00;71.30;;;;;;5031897;28;20467;-68
2024/03/21 02:03:07;;;;;;;;;;;12.80;68.90;;;;;;5034237;28;20009;-68
2024/03/21 02:05:32;;;;;;;;;;;12.90;68.40;;;;;;5035346;28;19905;-68
2024/03/21 02:07:58;;;;;;;;;;;12.80;67.40;;;;;;5035614;28;20379;-68
2024/03/21 02:10:23;;;;;;;;;;;12.90;69.70;;;;;;5035485;28;19905;-68
2024/03/21 02:12:50;;;;;;;;;;;12.80;72.10;;;;;;5035361;28;20295;-68
2024/03/21 02:15:15;;;;;;;;;;;12.60;73.60;;;;;;5035232;28;19951;-68
2024/03/21 02:17:41;;;;;;;;;;;12.60;80.90;;;;;;5035331;28;19952;-68
2024/03/21 02:20:07;;;;;;;;;;;12.50;83.10;;;;;;5035266;28;19905;-68
2024/03/21 02:22:35;;;;;;;;;;;12.20;83.30;;;;;;5035329;28;19905;-68
2024/03/21 02:25:04;;;;;;;;;;;12.40;87.10;;;;;;5035336;28;19959;-68
2024/03/21 02:27:29;;;;;;;;;;;12.40;90.60;;;;;;5034973;28;19939;-67
2024/03/21 02:29:56;;;;;;;;;;;12.30;89.70;;;;;;5035016;28;19917;-68
2024/03/21 02:32:21;;;;;;;;;;;12.40;89.90;;;;;;5035090;28;20344;-68
2024/03/21 02:34:47;;;;;;;;;;;12.50;87.50;;;;;;5034971;28;20011;-68
2024/03/21 02:37:12;;;;;;;;;;;12.50;89.70;;;;;;5034862;28;19928;-68
2024/03/21 02:39:38;;;;;;;;;;;12.40;88.20;;;;;;5034926;28;20357;-68
2024/03/21 02:42:03;;;;;;;;;;;12.60;87.70;;;;;;5034948;28;19905;-67
2024/03/21 02:44:29;;;;;;;;;;;12.50;86.80;;;;;;5034922;28;19955;-67
2024/03/21 02:46:54;;;;;;;;;;;12.90;77.60;;;;;;5034585;28;19992;-67
2024/03/21 02:49:19;;;;;;;;;;;12.90;72.00;;;;;;5034764;28;20280;-67
2024/03/21 02:51:45;;;;;;;;;;;12.90;70.90;;;;;;5034841;28;19956;-67
2024/03/21 02:54:10;;;;;;;;;;;12.80;73.10;;;;;;5034722;28;19963;-67
2024/03/21 02:56:36;;;;;;;;;;;12.80;73.60;;;;;;5034397;28;20385;-67
2024/03/21 02:59:02;;;;;;;;;;;12.60;75.40;;;;;;5034600;28;19912;-67
2024/03/21 03:01:28;;;;;;;;;;;12.70;79.40;;;;;;5034522;28;19952;-67
2024/03/21 03:03:53;;;;;;;;;;;12.80;80.60;;;;;;5034530;28;19905;-67
2024/03/21 03:06:20;;;;;;;;;;;12.60;80.30;;;;;;5034238;28;19924;-67
2024/03/21 03:08:45;;;;;;;;;;;12.90;79.30;;;;;;5034429;28;19905;-67
2024/03/21 03:11:11;;;;;;;;;;;12.80;76.90;;;;;;5034354;28;19928;-68
2024/03/21 03:13:36;;;;;;;;;;;12.80;81.50;;;;;;5033992;28;19947;-67
2024/03/21 03:16:02;;;;;;;;;;;12.90;80.60;;;;;;5034033;28;19905;-67
2024/03/21 03:18:28;;;;;;;;;;;12.80;99.90;;;;;;5034301;28;19905;-67
2024/03/21 03:20:53;;;;;;;;;;;13.10;73.60;;;;;;5034063;28;20380;-67
2024/03/21 03:23:18;;;;;;;;;;;12.90;99.90;;;;;;5034186;28;20376;-67
2024/03/21 03:25:44;;;;;;;;;;;13.00;99.90;;;;;;5033857;28;19936;-67
2024/03/21 03:28:09;;;;;;;;;;;12.90;21.10;;;;;;5034135;28;19905;-67
2024/03/21 03:30:35;;;;;;;;;;;12.90;1.00;;;;;;5033843;28;19975;-67
2024/03/21 03:35:33;;;;;;;;;;;12.70;1.00;;;;;;5033887;28;19955;-67
2024/03/21 03:35:52;;;;;;;;;;;12.50;1.00;;;;;;5033548;28;19905;-67
2024/03/21 03:38:18;;;;;;;;;;;12.50;1.00;;;;;;5033873;28;19905;-67
2024/03/21 03:40:44;;;;;;;;;;;12.40;99.90;;;;;;5033813;28;20331;-67
2024/03/21 03:43:10;;;;;;;;;;;12.30;99.90;;;;;;5033971;28;19905;-67
2024/03/21 03:45:35;;;;;;;;;;;12.30;99.90;;;;;;5033457;28;20000;-67
2024/03/21 03:48:01;;;;;;;;;;;12.30;99.90;;;;;;5033704;28;19905;-67
2024/03/21 03:50:26;;;;;;;;;;;11.90;99.90;;;;;;5033636;28;20365;-67
2024/03/21 03:52:52;;;;;;;;;;;12.10;99.90;;;;;;5033472;28;19905;-67
2024/03/21 03:55:17;;;;;;;;;;;12.00;99.90;;;;;;5033323;28;19945;-67
2024/03/21 03:57:43;;;;;;;;;;;11.90;99.90;;;;;;5033513;28;19959;-67
2024/03/21 04:00:10;;;;;;;;;;;12.00;99.90;;;;;;5033324;28;20361;-67
2024/03/21 04:02:39;;;;;;;;;;;11.70;99.90;;;;;;5033498;28;19905;-67
2024/03/21 04:05:05;;;;;;;;;;;12.00;99.90;;;;;;5033409;28;19909;-67
2024/03/21 04:07:31;;;;;;;;;;;11.70;99.90;;;;;;5033087;28;20380;-67
2024/03/21 04:09:57;;;;;;;;;;;11.90;99.90;;;;;;5033261;28;19952;-67
2024/03/21 04:12:22;;;;;;;;;;;11.70;99.90;;;;;;5033264;28;20317;-67
2024/03/21 04:14:51;;;;;;;;;;;12.20;99.90;;;;;;5033052;28;20384;-67
2024/03/21 04:17:17;;;;;;;;;;;12.30;99.90;;;;;;5032937;28;19912;-67
2024/03/21 04:19:42;;;;;;;;;;;12.30;99.90;;;;;;5033332;28;20280;-68
2024/03/21 04:22:08;;;;;;;;;;;12.20;99.90;;;;;;5033027;28;19905;-68
2024/03/21 04:24:33;;;;;;;;;;;12.30;99.90;;;;;;5032389;28;19966;-67
2024/03/21 04:26:59;;;;;;;;;;;12.40;99.90;;;;;;5032650;28;19994;-68
2024/03/21 04:29:24;;;;;;;;;;;12.10;99.90;;;;;;5032762;28;19909;-68
2024/03/21 04:31:50;;;;;;;;;;;12.40;99.90;;;;;;5032956;28;19916;-68
2024/03/21 04:34:15;;;;;;;;;;;12.30;99.90;;;;;;5032838;28;20011;-68
2024/03/21 04:36:41;;;;;;;;;;;12.30;99.90;;;;;;5032541;28;19912;-67
2024/03/21 04:39:07;;;;;;;;;;;12.30;99.90;;;;;;5032763;28;19912;-67
2024/03/21 04:41:33;;;;;;;;;;;12.40;99.90;;;;;;5032769;28;19905;-67
2024/03/21 04:43:58;;;;;;;;;;;12.40;99.90;;;;;;5032706;28;19912;-68
2024/03/21 04:46:24;;;;;;;;;;;12.40;99.90;;;;;;5032407;28;19936;-67
2024/03/21 04:48:50;;;;;;;;;;;12.20;99.90;;;;;;5032624;28;19989;-68
2024/03/21 04:51:15;;;;;;;;;;;12.50;99.90;;;;;;5032506;28;19940;-67
2024/03/21 04:53:41;;;;;;;;;;;12.50;99.90;;;;;;5032479;28;19916;-68
2024/03/21 04:56:06;;;;;;;;;;;12.70;99.90;;;;;;5032288;28;20349;-68
2024/03/21 04:58:32;;;;;;;;;;;12.50;99.90;;;;;;5032506;28;19905;-68
2024/03/21 05:00:57;;;;;;;;;;;12.80;99.90;;;;;;5032422;28;19940;-67
2024/03/21 05:03:23;;;;;;;;;;;12.60;99.90;;;;;;5032467;28;19905;-68
2024/03/21 05:05:48;;;;;;;;;;;12.30;99.90;;;;;;5032195;28;20288;-67
2024/03/21 05:08:14;;;;;;;;;;;12.50;99.90;;;;;;5032480;28;19958;-68
2024/03/21 05:10:39;;;;;;;;;;;12.40;99.90;;;;;;5032310;28;19905;-67
2024/03/21 05:13:05;;;;;;;;;;;12.30;99.90;;;;;;5032203;28;19935;-68
2024/03/21 05:15:30;;;;;;;;;;;12.10;99.90;;;;;;5032373;28;20008;-67
2024/03/21 05:17:56;;;;;;;;;;;12.20;99.90;;;;;;5032618;28;19909;-67
2024/03/21 05:20:24;;;;;;;;;;;12.10;99.90;;;;;;5032619;28;19905;-67
2024/03/21 05:22:50;;;;;;;;;;;12.10;99.90;;;;;;5032859;28;19908;-67
2024/03/21 05:25:15;;;;;;;;;;;12.10;99.90;;;;;;5032629;28;19912;-67
2024/03/21 05:27:41;;;;;;;;;;;12.10;99.90;;;;;;5032726;28;19909;-67
2024/03/21 05:30:06;;;;;;;;;;;12.00;99.90;;;;;;5032423;28;19952;-67
2024/03/21 05:32:32;;;;;;;;;;;11.80;99.90;;;;;;5032627;28;19988;-67
2024/03/21 05:34:57;;;;;;;;;;;11.50;99.90;;;;;;5032420;28;19909;-67
2024/03/21 05:37:23;;;;;;;;;;;11.40;99.90;;;;;;5035232;28;20258;-67
2024/03/21 05:39:48;;;;;;;;;;;11.60;99.90;;;;;;5036634;28;19909;-67
2024/03/21 05:42:16;;;;;;;;;;;11.20;99.90;;;;;;5036413;28;19909;-67
2024/03/21 05:44:42;;;;;;;;;;;11.10;99.90;;;;;;5036812;28;19928;-67
2024/03/21 05:47:28;;;;;;;;;;;11.10;99.90;;;;;;5036440;28;19905;-67
2024/03/21 05:49:53;;;;;;;;;;;11.00;99.90;;;;;;5035956;28;19912;-67
2024/03/21 05:52:19;;;;;;;;;;;11.00;99.90;;;;;;5036531;28;19909;-67
2024/03/21 05:54:48;;;;;;;;;;;11.00;99.90;;;;;;5036412;28;19916;-67
2024/03/21 05:57:14;;;;;;;;;;;10.90;99.90;;;;;;5036131;28;19927;-66
2024/03/21 05:59:39;;;;;;;;;;;10.90;99.90;;;;;;5036270;28;19909;-67
2024/03/21 06:02:05;;;;;;;;;;;10.90;99.90;;;;;;5035998;28;19905;-67
2024/03/21 06:04:30;;;;;;;;;;;10.80;99.90;;;;;;5036053;28;20415;-67
2024/03/21 06:06:56;;;;;;;;;;;10.80;99.90;;;;;;5035738;28;19915;-67
2024/03/21 06:09:23;;;;;;;;;;;10.60;99.90;;;;;;5036346;28;19912;-67
2024/03/21 06:11:49;;;;;;;;;;;10.80;99.90;;;;;;5036312;28;19928;-67
2024/03/21 06:14:14;;;;;;;;;;;10.80;99.90;;;;;;5036190;28;20375;-67
2024/03/21 06:16:40;;;;;;;;;;;10.80;99.90;;;;;;5035866;28;19905;-67
2024/03/21 06:19:05;;;;;;;;;;;10.80;99.90;;;;;;5036238;28;19905;-67
2024/03/21 06:21:31;;;;;;;;;;;10.80;99.90;;;;;;5036023;28;19912;-67
2024/03/21 06:23:56;;;;;;;;;;;10.90;99.90;;;;;;5035776;28;19964;-67
2024/03/21 06:26:22;;;;;;;;;;;10.80;99.90;;;;;;5034952;28;19905;-67
2024/03/21 06:28:47;;;;;;;;;;;10.80;99.90;;;;;;5035228;28;19912;-67
2024/03/21 06:31:13;;;;;;;;;;;10.80;99.90;;;;;;5035000;28;20042;-67
2024/03/21 06:33:38;;;;;;;;;;;10.80;99.90;;;;;;5035279;28;19932;-67
2024/03/21 06:36:04;;;;;;;;;;;10.70;99.90;;;;;;5035410;28;20430;-67
2024/03/21 06:38:30;;;;;;;;;;;10.70;99.90;;;;;;5035332;28;19910;-67
2024/03/21 06:40:55;;;;;;;;;;;10.70;99.90;;;;;;5035227;28;20372;-67
2024/03/21 06:43:21;;;;;;;;;;;10.80;99.90;;;;;;5034267;28;19951;-67
2024/03/21 06:45:56;;;;;;;;;;;10.80;99.90;;;;;;5035232;28;19905;-67
2024/03/21 06:48:21;;;;;;;;;;;10.90;99.90;;;;;;5034884;28;19912;-67
2024/03/21 06:50:47;;;;;;;;;;;10.90;99.90;;;;;;5035169;28;20348;-67
2024/03/21 06:53:12;;;;;;;;;;;11.00;99.90;;;;;;5035367;28;19909;-66
2024/03/21 06:55:38;;;;;;;;;;;11.00;99.90;;;;;;5035153;28;19944;-67
2024/03/21 06:58:03;;;;;;;;;;;11.00;99.90;;;;;;5035290;28;19976;-67
2024/03/21 07:00:29;;;;;;;;;;;11.00;99.90;;;;;;5035976;28;19905;-67
2024/03/21 07:02:58;;;;;;;;;;;11.10;99.90;;;;;;5035467;28;20353;-67
2024/03/21 07:05:26;;;;;;;;;;;11.30;99.90;;;;;;5044331;28;20322;-67
2024/03/21 07:07:52;;;;;;;;;;;11.40;99.90;;;;;;5054779;28;19912;-67
2024/03/21 07:10:19;;;;;;;;;;;11.50;99.90;;;;;;5054666;28;19905;-67
2024/03/21 07:12:44;;;;;;;;;;;11.60;99.90;;;;;;5054803;28;19911;-67
2024/03/21 07:15:10;;;;;;;;;;;11.70;99.90;;;;;;5054318;28;19908;-67
2024/03/21 07:17:35;;;;;;;;;;;11.70;99.90;;;;;;5054872;28;19951;-67
2024/03/21 07:20:01;;;;;;;;;;;11.80;99.90;;;;;;5054163;28;20360;-67
2024/03/21 07:22:26;;;;;;;;;;;11.80;99.90;;;;;;5054099;28;19912;-67
2024/03/21 07:24:52;;;;;;;;;;;11.70;99.90;;;;;;5054050;28;19959;-67
2024/03/21 07:27:18;;;;;;;;;;;11.70;99.90;;;;;;5053790;28;20429;-67
2024/03/21 07:29:43;;;;;;;;;;;11.70;99.90;;;;;;5054162;28;19909;-67
2024/03/21 07:32:09;;;;;;;;;;;11.70;99.90;;;;;;5054787;28;19909;-66
2024/03/21 07:34:35;;;;;;;;;;;11.70;99.90;;;;;;5054717;28;19909;-67
2024/03/21 07:37:00;;;;;;;;;;;11.70;99.90;;;;;;5054296;28;20442;-67
2024/03/21 07:39:26;;;;;;;;;;;11.40;99.90;;;;;;5054330;28;19908;-67
2024/03/21 07:41:52;;;;;;;;;;;11.50;99.90;;;;;;5054211;28;19905;-67
2024/03/21 07:44:17;;;;;;;;;;;11.40;99.90;;;;;;5053924;28;19966;-67
2024/03/21 07:46:43;;;;;;;;;;;11.20;99.90;;;;;;5054004;28;20360;-67
2024/03/21 07:49:08;;;;;;;;;;;11.20;99.90;;;;;;5054119;28;20002;-67
2024/03/21 07:51:37;;;;;;;;;;;11.20;99.90;;;;;;5053510;28;20288;-67
2024/03/21 07:54:03;;;;;;;;;;;11.30;99.90;;;;;;5053439;28;19934;-67
2024/03/21 07:56:29;;;;;;;;;;;11.30;99.90;;;;;;5053137;28;19943;-67
2024/03/21 07:58:54;;;;;;;;;;;11.10;99.90;;;;;;5053511;28;19908;-67
2024/03/21 08:01:21;;;;;;;;;;;11.00;99.90;;;;;;5052896;28;19905;-68
2024/03/21 08:03:46;;;;;;;;;;;11.00;99.90;;;;;;5053517;28;20284;-68
2024/03/21 08:06:12;;;;;;;;;;;11.00;99.90;;;;;;5053366;28;19904;-68
2024/03/21 08:08:37;;;;;;;;;;;10.90;99.90;;;;;;5053703;28;19996;-68
2024/03/21 08:11:03;;;;;;;;;;;10.90;99.90;;;;;;5053495;28;20310;-68
2024/03/21 08:13:28;;;;;;;;;;;10.90;99.90;;;;;;5053389;28;19913;-68
2024/03/21 08:15:54;;;;;;;;;;;10.90;99.90;;;;;;5053046;28;19949;-68
2024/03/21 08:18:20;;;;;;;;;;;11.00;99.90;;;;;;5053075;28;19908;-68
2024/03/21 08:20:45;;;;;;;;;;;11.00;99.90;;;;;;5038769;28;20080;-68
2024/03/21 08:23:12;;;;;;;;;;;11.00;99.90;;;;;;5033505;28;19905;-68
2024/03/21 08:25:38;;;;;;;;;;;11.00;99.90;;;;;;5033234;28;19905;-68
2024/03/21 08:28:03;;;;;;;;;;;11.10;99.90;;;;;;5033579;28;19905;-68
2024/03/21 08:30:29;;;;;;;;;;;11.10;99.90;;;;;;5033605;28;20013;-68
2024/03/21 08:32:54;;;;;;;;;;;11.10;99.90;;;;;;5033496;28;19905;-68
2024/03/21 08:35:20;;;;;;;;;;;11.00;99.90;;;;;;5033406;28;19963;-68
2024/03/21 08:37:45;;;;;;;;;;;11.10;99.90;;;;;;5032886;28;20276;-68
2024/03/21 08:40:13;;;;;;;;;;;11.20;99.90;;;;;;5032710;28;19905;-68
2024/03/21 08:42:39;;;;;;;;;;;11.20;99.90;;;;;;5033147;28;19952;-68
2024/03/21 08:45:06;;;;;;;;;;;11.10;1.00;;;;;;5033225;28;19928;-68
2024/03/21 08:47:32;;;;;;;;;;;11.10;99.90;;;;;;5032904;28;19905;-68
2024/03/21 08:49:57;;;;;;;;;;;11.00;99.90;;;;;;5033082;28;19912;-68
2024/03/21 08:52:23;;;;;;;;;;;10.90;99.90;;;;;;5033031;28;19905;-68
2024/03/21 08:54:48;;;;;;;;;;;10.90;99.90;;;;;;5032436;28;19923;-68
2024/03/21 08:57:14;;;;;;;;;;;10.90;99.90;;;;;;5032442;28;20315;-68
2024/03/21 08:59:39;;;;;;;;;;;10.90;99.90;;;;;;5032488;28;19905;-68
2024/03/21 09:02:06;;;;;;;;;;;10.90;99.90;;;;;;5032517;28;20383;-68
2024/03/21 09:04:31;;;;;;;;;;;11.00;99.90;;;;;;5032445;28;19912;-68
2024/03/21 09:06:57;;;;;;;;;;;11.10;99.90;;;;;;5032210;28;19905;-68
2024/03/21 09:09:22;;;;;;;;;;;11.30;99.90;;;;;;5032436;28;19912;-68
2024/03/21 09:11:48;;;;;;;;;;;11.10;1.00;;;;;;5032283;28;19912;-68
2024/03/21 09:14:13;;;;;;;;;;;11.20;99.90;;;;;;5032764;28;20003;-68
2024/03/21 09:16:39;;;;;;;;;;;11.10;1.00;;;;;;5032523;28;19908;-68
2024/03/21 09:19:04;;;;;;;;;;;11.10;99.90;;;;;;5032383;28;19959;-68
2024/03/21 09:21:31;;;;;;;;;;;11.10;99.90;;;;;;5032226;28;19952;-68
2024/03/21 09:23:57;;;;;;;;;;;11.00;99.90;;;;;;5032776;28;19905;-68
2024/03/21 09:26:22;;;;;;;;;;;11.10;99.90;;;;;;5032054;28;19915;-68
2024/03/21 09:28:48;;;;;;;;;;;11.20;99.90;;;;;;5032303;28;19912;-68
2024/03/21 09:31:13;;;;;;;;;;;11.20;99.90;;;;;;5031967;28;19913;-70
2024/03/21 09:33:39;;;;;;;;;;;11.30;99.90;;;;;;5032817;28;20019;-69
2024/03/21 09:36:08;;;;;;;;;;;11.30;99.90;;;;;;5032570;28;19958;-68
2024/03/21 09:38:34;;;;;;;;;;;11.30;99.90;;;;;;5031704;28;19905;-68
2024/03/21 09:41:00;;;;;;;;;;;11.50;99.90;;;;;;5032100;28;20307;-68
2024/03/21 09:43:26;;;;;;;;;;;11.50;99.90;;;;;;5031898;28;19905;-67
2024/03/21 09:45:54;;;;;;;;;;;11.50;99.90;;;;;;5031813;28;19905;-67
2024/03/21 09:48:20;;;;;;;;;;;11.50;99.90;;;;;;5032086;28;19905;-69
2024/03/21 09:50:46;;;;;;;;;;;11.60;99.90;;;;;;5031973;28;19928;-70
2024/03/21 09:53:13;;;;;;;;;;;11.70;99.90;;;;;;5031710;28;19974;-70
2024/03/21 09:55:40;;;;;;;;;;;11.80;99.90;;;;;;5031720;28;19905;-69
2024/03/21 09:58:10;;;;;;;;;;;11.60;99.90;;;;;;5028625;28;19941;-68
2024/03/21 10:00:35;;;;;;;;;;;11.70;99.90;;;;;;5032016;28;20343;-68
2024/03/21 10:03:02;;;;;;;;;;;12.00;99.90;;;;;;5033355;28;19912;-69
2024/03/21 10:05:27;;;;;;;;;;;12.00;99.30;;;;;;5032562;28;19909;-68
2024/03/21 10:07:53;;;;;;;;;;;12.00;93.90;;;;;;5032280;28;19985;-67
2024/03/21 10:10:18;;;;;;;;;;;12.00;97.40;;;;;;5032278;28;19905;-68
2024/03/21 10:12:45;;;;;;;;;;;12.00;84.20;;;;;;5031743;28;19905;-68
2024/03/21 10:15:11;;;;;;;;;;;12.10;84.60;;;;;;5032043;28;19916;-69
2024/03/21 10:17:37;;;;;;;;;;;12.10;90.30;;;;;;5034268;28;19905;-69
2024/03/21 10:20:03;;;;;;;;;;;12.30;99.90;;;;;;5034933;28;19951;-70
2024/03/21 10:22:29;;;;;;;;;;;12.50;1.00;;;;;;5036857;28;20183;-69
2024/03/21 10:25:01;;;;;;;;;;;12.70;1.00;;;;;;5040821;28;19909;-69
2024/03/21 10:27:29;;;;;;;;;;;12.80;1.00;;;;;;5034027;28;20334;-69
2024/03/21 10:29:55;;;;;;;;;;;12.90;99.90;;;;;;5042113;28;20369;-69
2024/03/21 10:32:21;;;;;;;;;;;13.00;1.00;;;;;;5034901;28;19955;-67
2024/03/21 10:34:50;;;;;;;;;;;13.20;1.00;;;;;;5039277;28;20419;-67
2024/03/21 10:37:16;;;;;;;;;;;13.20;29.90;;;;;;5034281;28;19905;-67
2024/03/21 10:39:42;;;;;;;;;;;13.30;30.00;;;;;;5034785;28;19905;-67
2024/03/21 10:42:14;;;;;;;;;;;13.10;26.40;;;;;;5034982;28;19905;-68
2024/03/21 10:44:40;;;;;;;;;;;13.20;28.00;;;;;;5034648;28;19905;-69
2024/03/21 10:47:10;;;;;;;;;;;13.30;34.60;;;;;;5031607;28;19909;-69
2024/03/21 10:49:36;;;;;;;;;;;13.30;43.90;;;;;;5031864;28;20641;-69
2024/03/21 10:52:04;;;;;;;;;;;13.40;26.60;;;;;;5032978;28;19909;-69
2024/03/21 10:54:37;;;;;;;;;;;13.40;27.20;;;;;;5033181;28;19909;-69
2024/03/21 10:57:03;;;;;;;;;;;13.20;27.90;;;;;;5029378;28;19915;-69
2024/03/21 10:59:28;;;;;;;;;;;13.30;45.20;;;;;;5031901;28;19916;-69
2024/03/21 11:01:54;;;;;;;;;;;13.10;38.60;;;;;;5032931;28;19963;-69
2024/03/21 11:04:19;;;;;;;;;;;13.10;34.30;;;;;;5032243;28;20003;-69
2024/03/21 11:06:48;;;;;;;;;;;13.10;33.30;;;;;;5032352;28;20938;-69
2024/03/21 11:09:14;;;;;;;;;;;13.00;30.00;;;;;;5031346;28;20331;-69
2024/03/21 11:11:40;;;;;;;;;;;12.90;32.00;;;;;;5032137;28;19991;-69
2024/03/21 11:14:07;;;;;;;;;;;12.90;29.20;;;;;;5032842;28;20003;-69
2024/03/21 11:16:33;;;;;;;;;;;13.00;30.70;;;;;;5032173;28;19905;-69
2024/03/21 11:18:58;;;;;;;;;;;13.00;35.10;;;;;;5032543;28;19913;-69
2024/03/21 11:21:24;;;;;;;;;;;13.10;36.80;;;;;;5032692;28;19991;-69
2024/03/21 11:23:50;;;;;;;;;;;13.10;26.10;;;;;;5031533;28;20000;-69
2024/03/21 11:26:16;;;;;;;;;;;13.10;32.60;;;;;;5031599;28;19912;-69
2024/03/21 11:28:42;;;;;;;;;;;13.00;99.90;;;;;;5032456;28;19931;-69
2024/03/21 11:31:24;;;;;;;;;;;13.00;1.00;;;;;;5031916;28;19917;-70
2024/03/21 11:33:51;;;;;;;;;;;13.00;99.90;;;;;;5032195;28;19932;-69
2024/03/21 11:36:17;;;;;;;;;;;13.10;99.90;;;;;;5033093;28;19905;-69
2024/03/21 11:38:43;;;;;;;;;;;13.40;28.10;;;;;;5033625;28;19928;-68
2024/03/21 11:41:19;;;;;;;;;;;13.40;22.10;;;;;;5039633;28;20399;-68
2024/03/21 11:43:47;;;;;;;;;;;13.30;27.80;;;;;;5053378;28;19955;-68
2024/03/21 11:46:13;;;;;;;;;;;13.30;25.20;;;;;;5052337;28;19905;-69
2024/03/21 11:48:39;;;;;;;;;;;13.40;23.40;;;;;;5052943;28;19991;-69
2024/03/21 11:51:04;;;;;;;;;;;13.40;26.80;;;;;;5053200;28;19904;-69
2024/03/21 11:53:30;;;;;;;;;;;13.50;23.90;;;;;;5053230;28;20021;-69
2024/03/21 11:55:55;;;;;;;;;;;13.70;18.80;;;;;;5052035;28;19932;-69
2024/03/21 11:58:21;;;;;;;;;;;13.90;18.50;;;;;;5053028;28;19904;-69
2024/03/21 12:00:46;;;;;;;;;;;13.60;10.50;;;;;;5053113;28;19905;-69
2024/03/21 12:03:12;;;;;;;;;;;13.30;1.00;;;;;;5052591;28;19909;-69
2024/03/21 12:05:38;;;;;;;;;;;13.30;20.00;;;;;;5043834;28;19909;-69
2024/03/21 12:08:03;;;;;;;;;;;13.40;99.90;;;;;;5033047;28;19927;-69
2024/03/21 12:10:29;;;;;;;;;;;13.60;18.30;;;;;;5032568;28;19906;-69
2024/03/21 12:12:55;;;;;;;;;;;13.50;23.90;;;;;;5032857;28;19918;-70
2024/03/21 12:15:20;;;;;;;;;;;13.30;23.90;;;;;;5032313;28;19909;-69
2024/03/21 12:17:46;;;;;;;;;;;13.30;29.20;;;;;;5032631;28;19905;-69
2024/03/21 12:20:11;;;;;;;;;;;13.50;33.40;;;;;;5032598;28;19956;-70
2024/03/21 12:22:37;;;;;;;;;;;13.50;31.40;;;;;;5032765;28;19905;-70
2024/03/21 12:25:03;;;;;;;;;;;13.40;34.30;;;;;;5032500;28;20005;-69
2024/03/21 12:27:28;;;;;;;;;;;13.40;30.30;;;;;;5031904;28;19908;-69
2024/03/21 12:29:54;;;;;;;;;;;13.50;24.80;;;;;;5032495;28;19982;-69
2024/03/21 12:32:19;;;;;;;;;;;13.80;28.80;;;;;;5032210;28;19904;-69
2024/03/21 12:34:45;;;;;;;;;;;14.60;14.70;;;;;;5032147;28;19920;-69
2024/03/21 12:37:13;;;;;;;;;;;14.80;5.40;;;;;;5031897;28;19967;-69
2024/03/21 12:39:39;;;;;;;;;;;14.60;3.10;;;;;;5031962;28;20020;-69
2024/03/21 12:42:05;;;;;;;;;;;14.40;2.20;;;;;;5038240;28;20384;-71
2024/03/21 12:44:31;;;;;;;;;;;14.50;1.00;;;;;;5032818;28;19912;-69
2024/03/21 12:46:56;;;;;;;;;;;15.00;99.90;;;;;;5030751;28;20293;-69
2024/03/21 12:49:22;;;;;;;;;;;15.50;1.00;;;;;;5032123;28;19905;-69
2024/03/21 12:51:47;;;;;;;;;;;15.80;1.00;;;;;;5032549;28;19905;-70
2024/03/21 12:54:13;;;;;;;;;;;15.60;1.00;;;;;;5031820;28;19909;-69
2024/03/21 12:56:38;;;;;;;;;;;15.20;1.00;;;;;;5031369;28;19905;-69
2024/03/21 12:59:04;;;;;;;;;;;14.60;99.90;;;;;;5032346;28;19909;-69
2024/03/21 13:01:29;;;;;;;;;;;14.60;1.00;;;;;;5031901;28;20325;-69
2024/03/21 13:03:55;;;;;;;;;;;14.70;1.00;;;;;;5032050;28;19909;-69
2024/03/21 13:06:21;;;;;;;;;;;14.60;1.00;;;;;;5031441;28;19908;-69
2024/03/21 13:08:46;;;;;;;;;;;14.90;1.00;;;;;;5032119;28;20253;-69
2024/03/21 13:11:11;;;;;;;;;;;14.90;1.00;;;;;;5031095;28;19912;-69
2024/03/21 13:13:38;;;;;;;;;;;15.00;1.00;;;;;;5032001;28;20004;-69
2024/03/21 13:16:04;;;;;;;;;;;15.50;1.00;;;;;;5031357;28;19912;-69
2024/03/21 13:18:29;;;;;;;;;;;15.60;1.00;;;;;;5031245;28;19906;-69
2024/03/21 13:20:55;;;;;;;;;;;15.50;1.00;;;;;;5031827;28;20284;-70
2024/03/21 13:23:21;;;;;;;;;;;15.50;1.00;;;;;;5031797;28;19912;-70
2024/03/21 13:25:46;;;;;;;;;;;15.80;1.00;;;;;;5030470;28;19905;-69
2024/03/21 13:28:12;;;;;;;;;;;16.20;1.00;;;;;;5031813;28;19912;-69
2024/03/21 13:30:38;;;;;;;;;;;15.90;1.00;;;;;;5031754;28;19928;-69
2024/03/21 13:33:03;;;;;;;;;;;15.90;1.00;;;;;;5031149;28;19905;-69
2024/03/21 13:35:29;;;;;;;;;;;15.90;1.00;;;;;;5031111;28;19908;-69
2024/03/21 13:37:54;;;;;;;;;;;15.80;1.00;;;;;;5032161;28;19908;-70
2024/03/21 13:40:21;;;;;;;;;;;15.90;1.00;;;;;;5025968;28;19909;-69
2024/03/21 13:42:47;;;;;;;;;;;16.20;1.00;;;;;;5033604;28;19944;-70
2024/03/21 13:45:13;;;;;;;;;;;16.40;1.00;;;;;;5034131;28;20008;-69
2024/03/21 13:47:39;;;;;;;;;;;16.30;1.00;;;;;;5030755;28;19984;-70
2024/03/21 13:50:06;;;;;;;;;;;16.20;1.00;;;;;;5031591;28;19905;-70
2024/03/21 13:52:32;;;;;;;;;;;16.60;1.00;;;;;;5027235;28;19909;-69
2024/03/21 13:55:01;;;;;;;;;;;16.60;1.00;;;;;;5033886;28;19966;-70
2024/03/21 13:57:28;;;;;;;;;;;16.70;1.00;;;;;;5042552;28;19904;-69
2024/03/21 13:59:55;;;;;;;;;;;17.00;1.00;;;;;;5038122;28;19943;-71
2024/03/21 14:02:22;;;;;;;;;;;17.10;1.00;;;;;;5034956;28;19959;-68
2024/03/21 14:04:48;;;;;;;;;;;17.00;1.00;;;;;;5035558;28;20315;-69
2024/03/21 14:07:13;;;;;;;;;;;16.80;1.00;;;;;;5030383;28;19984;-68
2024/03/21 14:09:39;;;;;;;;;;;16.70;1.00;;;;;;5048029;28;19920;-69
2024/03/21 14:12:04;;;;;;;;;;;17.10;1.00;;;;;;5046964;28;19909;-70